• Join FlightAware (Why Join?)
  • Login
  • US Flag 
10:31AM EDT


 

Airport Tracker/Info


-or-


 

Live Flight TrackerFlight Track Log ✈ VH-MWO ✈ 19-Aug-2013 ✈ YBRM / BME - YMEK / MKR

Flight Track Log - Related Links

Times and Time Zones

All times are in EDT time to prevent confusion due to time zone crossing. See the VH-MWO flight status page for this flight to view local times or setup timezone preferences in your user account.

Time Position Orientation Groundspeed Altitude Reporting Facility
EDT Latitude Longitude Course Direction KTS MPH feet Rate Location/Type
11:57PM -17.9496 122.2277 213° Southwest 19,300  Level Aus ATC (Calculated)
11:59PM -18.0150 122.1837 213° Southwest  Level FlightAware Approximate
11:59PM -18.0504 122.1639 360° North 19,300  Level Aus ATC (Calculated)
12:00AM -18.0504 122.1639 213° Southwest 19,300  Level Aus ATC (Calculated)
12:01AM -18.1372 122.1044 213° Southwest  Level FlightAware Approximate
12:01AM -18.1024 122.1282 215° Southwest 19,300  Level Aus ATC (Calculated)
12:02AM -18.1561 122.0887 204° Southwest 19,300  Level Aus ATC (Calculated)
12:03AM -18.1679 122.0832 213° Southwest  Level FlightAware Approximate
12:03AM -18.1545 122.0925 214° Southwest 19,300  Level Aus ATC (Calculated)
12:04AM -18.2108 122.0518 213° Southwest  Level FlightAware Approximate
12:05AM -18.2242 122.0445 213° Southwest  Level FlightAware Approximate
12:05AM -18.2065 122.0567 213° Southwest 19,300  Level Aus ATC (Calculated)
12:06AM -18.3105 121.9851 246° West 19,300  Level Aus ATC (Calculated)
12:07AM -18.3109 121.9842 213° Southwest 19,300  Level Aus ATC (Calculated)
12:08AM -18.3734 121.9418 213° Southwest  Level FlightAware Approximate
12:09AM -18.3748 121.9593 201° Southwest  Level Estimated
12:09AM -18.3625 121.9493 201° Southwest 26,000  Level Aus ATC (Calculated)
12:09AM -18.4534 121.9120 201° Southwest 26,000  Level Aus ATC (Calculated)
12:11AM -18.5131 121.8876 201° Southwest  Level FlightAware Approximate
12:12AM -18.5699 121.8642 201° Southwest  Level FlightAware Approximate
12:12AM -18.5444 121.8747 201° Southwest 26,000  Level Aus ATC (Calculated)
12:13AM -18.6267 121.8409 201° Southwest  Level FlightAware Approximate
12:14AM -18.6087 121.8483 201° Southwest  Level FlightAware Approximate
12:15AM -18.6655 121.8249 201° Southwest  Level FlightAware Approximate
12:15AM -18.7262 121.8000 21° North 26,000  Level Aus ATC (Calculated)
12:16AM -18.7223 121.8016 201° Southwest  Level FlightAware Approximate
12:17AM -18.7915 121.7731 201° Southwest  Level FlightAware Approximate
12:18AM -18.8483 121.7497 201° Southwest  Level FlightAware Approximate
12:19AM -18.9051 121.7263 201° Southwest  Level FlightAware Approximate
12:19AM -18.9080 121.7251 201° Southwest 26,000  Level Aus ATC (Calculated)
12:20AM -18.9618 121.7028 201° Southwest  Level FlightAware Approximate
12:20AM -18.9989 121.6875 201° Southwest 26,000  Level Aus ATC (Calculated)
12:22AM -19.1077 121.6426 201° Southwest  Level FlightAware Approximate
12:23AM -19.1645 121.6191 201° Southwest  Level FlightAware Approximate
12:23AM -19.1806 121.6124 201° Southwest 26,000  Level Aus ATC (Calculated)
12:24AM -19.2212 121.5956 201° Southwest  Level FlightAware Approximate
12:25AM -19.2421 121.5869 201° Southwest  Level FlightAware Approximate
12:26AM -19.2989 121.5634 201° Southwest  Level FlightAware Approximate
12:27AM -19.3556 121.5398 201° Southwest  Level FlightAware Approximate
12:28AM -19.4124 121.5163 201° Southwest  Level FlightAware Approximate
12:28AM -19.4532 121.4993 201° Southwest 26,000  Level Aus ATC (Calculated)
12:29AM -19.4691 121.4927 201° Southwest  Level FlightAware Approximate
12:30AM -19.5146 121.4738 201° Southwest  Level FlightAware Approximate
12:31AM -19.5714 121.4502 201° Southwest  Level FlightAware Approximate
12:32AM -19.6281 121.4266 201° Southwest  Level FlightAware Approximate
12:32AM -19.6348 121.4238 201° Southwest 26,000  Level Aus ATC (Calculated)
12:34AM -19.7349 121.3821 201° Southwest  Level FlightAware Approximate
12:35AM -19.7899 121.3605 201° Southwest  Level Estimated
12:35AM -19.8164 121.3480 201° Southwest 26,000  Level Aus ATC (Calculated)
12:37AM -19.9141 121.3073 201° Southwest  Level FlightAware Approximate
12:37AM -19.9857 121.2773 21° North 26,000  Level Aus ATC (Calculated)
12:38AM -19.9683 121.2846 201° Southwest  Level FlightAware Approximate
12:39AM -20.0613 121.2457 201° Southwest  Level FlightAware Approximate
12:40AM -20.1158 121.2228 201° Southwest  Level FlightAware Approximate
12:41AM -20.1704 121.1999 201° Southwest  Level FlightAware Approximate
12:42AM -20.2250 121.1770 201° Southwest  Level FlightAware Approximate
12:42AM -20.2679 121.1590 202° Southwest 26,000  Level Aus ATC (Calculated)
12:44AM -20.3479 121.1253 202° Southwest  Level FlightAware Approximate
12:45AM -20.4025 121.1024 202° Southwest  Level FlightAware Approximate
12:46AM -20.4570 121.0794 202° Southwest  Level FlightAware Approximate
12:47AM -20.5116 121.0564 202° Southwest  Level FlightAware Approximate
12:47AM -20.5499 121.0402 202° Southwest 26,000  Level Aus ATC (Calculated)
12:49AM -20.6308 121.0061 202° Southwest  Level FlightAware Approximate
12:50AM -20.6854 120.9830 202° Southwest  Level FlightAware Approximate
12:51AM -20.7399 120.9600 202° Southwest  Level FlightAware Approximate
12:52AM -20.7945 120.9369 202° Southwest  Level FlightAware Approximate
12:52AM -20.8319 120.9211 202° Southwest 26,000  Level Aus ATC (Calculated)
12:54AM -20.9128 120.8868 202° Southwest  Level FlightAware Approximate
12:55AM -20.9673 120.8637 202° Southwest  Level FlightAware Approximate
12:56AM -21.0218 120.8405 202° Southwest  Level FlightAware Approximate
12:57AM -21.0763 120.8174 202° Southwest  Level FlightAware Approximate
12:57AM -21.1137 120.8015 202° Southwest 26,000  Level Aus ATC (Calculated)
12:59AM -21.1950 120.7669 202° Southwest  Level FlightAware Approximate
01:00AM -21.2491 120.7438 202° Southwest  Level FlightAware Approximate
01:01AM -21.3033 120.7207 202° Southwest  Level FlightAware Approximate
01:02AM -21.3575 120.6976 202° Southwest  Level FlightAware Approximate
01:02AM -21.3955 120.6814 202° Southwest 26,000  Level Aus ATC (Calculated)
01:03AM -21.4116 120.6745 202° Southwest  Level FlightAware Approximate
01:04AM -21.4767 120.6467 202° Southwest  Level FlightAware Approximate
01:05AM -21.5308 120.6236 202° Southwest  Level FlightAware Approximate
01:06AM -21.5850 120.6004 202° Southwest  Level FlightAware Approximate
01:07AM -21.6392 120.5772 202° Southwest  Level FlightAware Approximate
01:07AM -21.7334 120.5368 202° Southwest 26,000  Level Aus ATC (Calculated)
01:09AM -21.8155 120.5015 202° Southwest  Level FlightAware Approximate
01:09AM -21.8461 120.4884 202° Southwest 26,000  Level Aus ATC (Calculated)
01:10AM -21.8697 120.4782 202° Southwest  Level FlightAware Approximate
01:11AM -21.9056 120.4628 202° Southwest  Level FlightAware Approximate
01:12AM -21.9597 120.4395 202° Southwest  Level FlightAware Approximate
01:12AM -22.0150 120.4157 360° North 26,000  Level Aus ATC (Calculated)
01:12AM -22.0150 120.4157 202° Southwest 26,000  Level Aus ATC (Calculated)
01:14AM -22.0790 120.3881 202° Southwest  Level FlightAware Approximate
01:15AM -22.1331 120.3647 202° Southwest  Level FlightAware Approximate
01:15AM -22.1838 120.3428 202° Southwest 26,000  Level Aus ATC (Calculated)
01:17AM -22.2785 120.3019 202° Southwest  Level FlightAware Approximate
01:17AM -22.2964 120.2942 202° Southwest 26,000  Level Aus ATC (Calculated)
01:19AM -22.3658 120.2641 202° Southwest  Level FlightAware Approximate
01:20AM -22.4199 120.2406 202° Southwest  Level FlightAware Approximate
01:21AM -22.4740 120.2172 202° Southwest  Level FlightAware Approximate
01:22AM -22.5281 120.1937 202° Southwest  Level FlightAware Approximate
01:22AM -22.5777 120.1721 202° Southwest 26,000  Level Aus ATC (Calculated)
01:23AM -22.6340 120.1477 202° Southwest 26,000  Level Aus ATC (Calculated)
01:25AM -22.7191 120.1106 202° Southwest  Level FlightAware Approximate
01:26AM -22.7728 120.0872 202° Southwest  Level FlightAware Approximate
01:27AM -22.8266 120.0637 202° Southwest  Level FlightAware Approximate
01:27AM -22.8590 120.0496 202° Southwest 26,000  Level Aus ATC (Calculated)
01:29AM -22.9288 120.0191 202° Southwest  Level FlightAware Approximate
01:30AM -22.9825 119.9956 202° Southwest  Level FlightAware Approximate
01:31AM -23.0363 119.9721 202° Southwest  Level FlightAware Approximate
01:32AM -23.0900 119.9485 202° Southwest  Level FlightAware Approximate
01:32AM -23.1963 119.9019 202° Southwest 26,000  Level Aus ATC (Calculated)
01:34AM -23.2670 119.8708 202° Southwest  Level FlightAware Approximate
01:35AM -23.3207 119.8472 202° Southwest  Level FlightAware Approximate
01:36AM -23.3744 119.8236 202° Southwest  Level FlightAware Approximate
01:37AM -23.4281 119.7999 202° Southwest  Level FlightAware Approximate
01:37AM -23.4705 119.7839 20° North 26,000  Level Aus ATC (Calculated)
01:39AM -23.3986 119.8118 20° North  Level FlightAware Approximate
01:40AM -23.4532 119.7906 200° South  Level FlightAware Approximate
01:41AM -23.3986 119.8118 20° North  Level FlightAware Approximate
01:41AM -23.7173 119.6878 20° North 26,000  Level Aus ATC (Calculated)
01:42AM -23.4532 119.7906 200° South  Level FlightAware Approximate
01:43AM -23.6541 119.7124 20° North  Level FlightAware Approximate
01:44AM -23.5999 119.7335 20° North  Level FlightAware Approximate
01:45AM -23.5457 119.7546 20° North  Level FlightAware Approximate
01:46AM -23.4914 119.7757 20° North  Level FlightAware Approximate
01:46AM -24.0135 119.5720 20° North 26,000  Level Aus ATC (Calculated)
01:47AM -23.4372 119.7968 20° North  Level FlightAware Approximate
01:48AM -24.0814 119.5458 200° South  Level Estimated
01:49AM -24.1356 119.5245 200° South  Level FlightAware Approximate
01:50AM -24.1898 119.5032 200° South  Level FlightAware Approximate
01:51AM -24.2439 119.4818 200° South  Level FlightAware Approximate
01:51AM -24.2602 119.4751 199° South 26,000  Level Aus ATC (Calculated)
01:52AM -24.2981 119.4605 200° South  Level FlightAware Approximate
01:52AM -24.3096 119.4556 200° South 26,000  Level Aus ATC (Calculated)
01:54AM -24.4008 119.4197 200° South  Level FlightAware Approximate
01:55AM -24.4550 119.3983 200° South  Level FlightAware Approximate
01:56AM -24.5091 119.3769 200° South  Level FlightAware Approximate
01:57AM -24.5633 119.3555 200° South  Level FlightAware Approximate
01:57AM -24.6055 119.3388 200° South 26,000  Level Aus ATC (Calculated)
01:59AM -24.6967 119.3027 200° South  Level FlightAware Approximate
02:00AM -24.7509 119.2812 200° South  Level FlightAware Approximate
02:01AM -24.8050 119.2597 200° South  Level FlightAware Approximate
02:02AM -24.8592 119.2382 200° South  Level FlightAware Approximate
02:02AM -24.9014 119.2214 200° South 26,000  Level Aus ATC (Calculated)
02:04AM -24.9935 119.1847 200° South  Level FlightAware Approximate
02:05AM -25.0476 119.1631 200° South  Level FlightAware Approximate
02:06AM -24.9935 119.1847 20° North  Level FlightAware Approximate
02:06AM -25.1508 119.1219 20° North 600  Level Aus ATC (Calculated)
02:07AM -25.0476 119.1631 200° South  Level FlightAware Approximate
02:07AM -25.2011 119.1018 20° North 600  Level Aus ATC (Calculated)
02:09AM -25.1090 119.1386 20° North  Level FlightAware Approximate
02:09AM -25.3518 119.0414 360° North 600  Level Aus ATC (Calculated)
02:09AM -25.3518 119.0414 20° North 600  Level Aus ATC (Calculated)
02:11AM -25.2824 119.0693 20° North  Level FlightAware Approximate
02:12AM -25.2283 119.0909 20° North  Level FlightAware Approximate
02:13AM -25.1741 119.1126 20° North  Level FlightAware Approximate
02:14AM -25.1200 119.1342 20° North  Level FlightAware Approximate
02:14AM -25.6533 118.9202 20° North 600  Level Aus ATC (Calculated)
02:16AM -25.5793 118.9500 20° North  Level FlightAware Approximate
02:17AM -25.5252 118.9718 20° North  Level FlightAware Approximate
02:18AM -25.4711 118.9936 20° North  Level FlightAware Approximate
02:19AM -25.4170 119.0153 20° North  Level FlightAware Approximate
02:19AM -25.9546 118.7984 199° South 600  Level Aus ATC (Calculated)
02:21AM -26.0299 118.7698 200° South  Level Estimated
02:21AM -26.0550 118.7576 197° South 600  Level Aus ATC (Calculated)
02:22AM -26.0840 118.7477 200° South  Level FlightAware Approximate
02:22AM -26.1052 118.7373 200° South 600  Level Aus ATC (Calculated)
02:23AM -26.1289 118.7276 200° South  Level FlightAware Approximate
02:24AM -26.1800 118.7068 200° South  Level FlightAware Approximate
02:25AM -26.2341 118.6848 200° South  Level FlightAware Approximate
02:25AM -26.3060 118.6555 360° North 600  Level Aus ATC (Calculated)
02:26AM -26.3060 118.6555 200° South 600  Level Aus ATC (Calculated)
02:28AM -26.4024 118.6161 200° South  Level FlightAware Approximate
02:28AM -26.4565 118.5940 20° North 600  Level Aus ATC (Calculated)
02:29AM -26.4564 118.5940 200° South  Level FlightAware Approximate
02:30AM -26.5322 118.5630 200° South  Level FlightAware Approximate
02:31AM -26.5862 118.5408 200° South  Level FlightAware Approximate
02:31AM -26.6094 118.5400 360° North  Level Aus ATC (Calculated)
02:31AM -26.6094 118.5400 108° East  Level Aus ATC (Calculated)
02:32AM -26.6117 118.5478 200° South  Level Estimated
02:33AM -26.6117 118.5478 289° West  Level Estimated
02:34AM -26.6117 118.5478 288° West  Level Estimated
02:35AM -26.6117 118.5478 288° West  Level Estimated
02:36AM -26.6117 118.5478 288° West  Level Estimated
02:37AM -26.6117 118.5478 288° West  Level Estimated
02:38AM -26.6117 118.5478 288° West  Level Estimated
02:39AM -26.6117 118.5478 288° West  Level Estimated
02:40AM -26.6117 118.5478 289° West  Level Estimated